Campbell, Minnesota
Current Conditions -  °F | °C
As of 6:15 AM on Friday 28 Nov 2014 (Local Time) from KBWP Reporting Station
Broken Clouds Broken Clouds  
Wind Chill: -2°   Ceiling: 2800
Heat Index: 10°   Visibility: 10mi
Dew Point:   Wind: 9mph
Humidity: 73%   Direction: 150°SSE
Pressure: 29.97"   Gusts: NA
Location:  46.1°N, 96.4°W
Report Text: KBWP 281215Z AUTO 15008KT 10SM BKN028 M12/M16 A2997 RMK AO1
Loading
Personal Weather Stations






























Interactive Weather Map New forecast layout! Learn more

10-Day Weather Forecast

Advertisements
Track Severe Weather on mobile